Time;durP1;ratioP1;P1;durP2;ratioP2;P2;SDS_P1;SDS_P2;PMS_P1;PMS_P2;Temp;Humidity;BMP_temperature;BMP_pressure;BME280_temperature;BME280_humidity;BME280_pressure;Samples;Min_cycle;Max_cycle;Signal;HPM_P1;HPM_P2
2021/08/10 00:00:30;;;;;;;1.42;0.73;;;20.80;62.50;;;;;;21005139;28;20037;-20
2021/08/10 00:10:31;;;;;;;1.25;0.68;;;20.80;62.50;;;;;;20997897;28;20114;-20
2021/08/10 00:20:33;;;;;;;2.60;0.50;;;20.80;62.50;;;;;;20993023;28;20028;-20
2021/08/10 00:30:33;;;;;;;1.05;0.55;;;20.80;62.50;;;;;;20992125;28;20028;-20
2021/08/10 00:40:34;;;;;;;0.77;0.47;;;20.80;62.50;;;;;;20990631;28;20109;-21
2021/08/10 00:50:35;;;;;;;1.25;0.57;;;20.80;62.40;;;;;;20989463;28;20040;-20
2021/08/10 01:00:35;;;;;;;1.52;0.93;;;20.80;62.40;;;;;;20989762;28;20044;-21
2021/08/10 01:11:09;;;;;;;1.35;0.60;;;20.80;62.40;;;;;;20989033;28;20033;-20
2021/08/10 01:21:24;;;;;;;1.02;0.52;;;20.80;62.50;;;;;;20987373;28;20028;-19
2021/08/10 01:31:32;;;;;;;1.48;0.60;;;20.80;62.40;;;;;;20986854;28;20412;-19
2021/08/10 01:41:33;;;;;;;1.30;0.75;;;20.80;62.40;;;;;;20986566;28;20024;-19
2021/08/10 01:51:35;;;;;;;1.45;0.70;;;20.80;62.40;;;;;;20984590;28;20036;-19
2021/08/10 02:01:38;;;;;;;0.82;0.50;;;20.80;62.40;;;;;;20984770;28;20056;-20
2021/08/10 02:11:39;;;;;;;1.23;0.68;;;20.80;62.40;;;;;;20985038;28;20052;-20
2021/08/10 02:22:01;;;;;;;0.95;0.63;;;20.80;62.40;;;;;;20985107;28;20391;-20
2021/08/10 02:32:04;;;;;;;1.38;0.70;;;20.80;62.40;;;;;;20983592;28;20324;-20
2021/08/10 02:42:07;;;;;;;1.40;0.68;;;20.80;62.40;;;;;;20983341;28;20072;-20
2021/08/10 02:52:08;;;;;;;1.58;0.75;;;20.70;62.40;;;;;;20982940;28;20031;-21
2021/08/10 03:02:18;;;;;;;1.27;0.65;;;20.80;62.40;;;;;;20994689;28;20036;-21
2021/08/10 03:12:22;;;;;;;1.02;0.52;;;20.80;62.40;;;;;;20997442;28;20071;-22
2021/08/10 03:22:25;;;;;;;1.33;0.73;;;20.80;62.40;;;;;;20997230;28;20060;-20
2021/08/10 03:32:25;;;;;;;2.78;0.60;;;20.80;62.40;;;;;;20996532;28;20044;-21
2021/08/10 03:42:27;;;;;;;1.25;0.50;;;20.80;62.50;;;;;;20995691;28;20311;-21
2021/08/10 03:52:29;;;;;;;1.05;0.60;;;20.80;62.40;;;;;;20994768;28;20056;-21
2021/08/10 04:02:29;;;;;;;1.50;0.77;;;20.80;62.40;;;;;;21000546;28;20044;-21
2021/08/10 04:12:30;;;;;;;1.65;0.82;;;20.80;62.40;;;;;;20994694;28;20071;-20
2021/08/10 04:22:32;;;;;;;1.10;0.50;;;20.80;62.40;;;;;;20991848;28;20060;-20
2021/08/10 04:32:33;;;;;;;1.42;0.60;;;20.80;62.40;;;;;;20993766;28;20028;-20
2021/08/10 04:42:34;;;;;;;0.93;0.60;;;20.70;62.30;;;;;;20991004;28;20448;-21
2021/08/10 04:52:35;;;;;;;1.38;0.70;;;20.70;62.30;;;;;;20989701;28;20743;-22
2021/08/10 05:02:37;;;;;;;1.35;0.63;;;20.70;62.30;;;;;;21032533;22;20506;-20
2021/08/10 05:12:38;;;;;;;1.48;0.60;;;20.70;62.30;;;;;;21072109;28;20032;-20
2021/08/10 05:22:40;;;;;;;2.13;0.50;;;20.70;62.30;;;;;;21070000;28;20545;-20
2021/08/10 05:32:41;;;;;;;0.90;0.60;;;20.70;62.30;;;;;;21070805;28;20081;-20
2021/08/10 05:42:42;;;;;;;1.30;0.60;;;20.70;62.30;;;;;;21072619;28;20123;-21
2021/08/10 05:52:42;;;;;;;1.05;0.65;;;20.70;62.30;;;;;;21072280;28;20450;-20
2021/08/10 06:02:43;;;;;;;1.15;0.77;;;20.70;62.30;;;;;;21074536;28;20047;-20
2021/08/10 06:12:43;;;;;;;1.63;0.63;;;20.70;62.50;;;;;;21069617;28;20480;-20
2021/08/10 06:22:44;;;;;;;0.98;0.57;;;20.70;62.40;;;;;;21069066;28;20570;-20
2021/08/10 06:32:45;;;;;;;1.20;0.50;;;20.70;62.40;;;;;;21076398;28;20103;-20
2021/08/10 06:42:45;;;;;;;3.28;0.60;;;20.70;62.40;;;;;;21084814;28;20550;-20
2021/08/10 06:52:47;;;;;;;2.35;1.13;;;20.70;62.40;;;;;;21085357;28;20438;-20
2021/08/10 07:02:47;;;;;;;1.55;0.80;;;20.70;62.40;;;;;;21087871;28;20465;-20
2021/08/10 07:12:48;;;;;;;2.00;0.65;;;20.70;62.40;;;;;;21082537;28;20166;-20
2021/08/10 07:22:49;;;;;;;0.80;0.50;;;20.70;62.40;;;;;;21083446;28;20086;-20
2021/08/10 07:32:49;;;;;;;2.30;0.88;;;20.70;62.40;;;;;;21081398;28;20028;-20
2021/08/10 07:42:50;;;;;;;1.50;0.57;;;20.70;62.40;;;;;;21080115;28;20066;-21
2021/08/10 07:52:52;;;;;;;1.40;0.60;;;20.70;62.40;;;;;;21080532;28;20028;-20
2021/08/10 08:02:52;;;;;;;0.85;0.40;;;20.70;62.40;;;;;;21078008;28;20043;-19
2021/08/10 08:12:53;;;;;;;1.42;0.95;;;20.70;62.40;;;;;;21078304;28;20036;-19
2021/08/10 08:22:53;;;;;;;1.85;0.52;;;20.60;62.30;;;;;;21077265;28;20071;-19
2021/08/10 08:32:54;;;;;;;1.83;0.70;;;20.80;62.40;;;;;;21076074;28;20055;-19
2021/08/10 08:42:55;;;;;;;1.27;0.45;;;20.70;62.40;;;;;;21075275;28;20036;-20
2021/08/10 08:52:57;;;;;;;1.25;0.50;;;20.70;62.30;;;;;;21074745;28;20032;-20
2021/08/10 09:02:57;;;;;;;1.88;0.80;;;20.80;62.30;;;;;;21080547;28;20040;-20
2021/08/10 09:13:01;;;;;;;1.10;0.57;;;20.80;62.20;;;;;;21074895;28;20032;-20
2021/08/10 09:23:02;;;;;;;1.02;0.60;;;20.80;62.20;;;;;;21076057;28;20051;-20
2021/08/10 09:33:04;;;;;;;1.35;0.57;;;20.80;62.20;;;;;;21071383;28;20127;-20
2021/08/10 09:43:32;;;;;;;1.67;0.70;;;20.80;62.20;;;;;;21071990;28;20064;-21
2021/08/10 09:53:33;;;;;;;1.35;0.68;;;20.80;62.10;;;;;;21071004;28;20039;-20
2021/08/10 10:03:33;;;;;;;2.00;1.00;;;20.80;62.10;;;;;;21071015;28;20032;-20
2021/08/10 10:13:35;;;;;;;1.60;0.70;;;20.80;62.20;;;;;;21071861;28;20456;-20
2021/08/10 10:23:36;;;;;;;1.63;1.08;;;20.80;62.20;;;;;;21074463;28;20047;-20
2021/08/10 10:33:37;;;;;;;2.40;0.85;;;20.80;62.20;;;;;;21080888;28;20507;-20
2021/08/10 10:43:38;;;;;;;1.95;0.73;;;20.80;62.30;;;;;;21068414;28;20020;-20
2021/08/10 10:53:44;;;;;;;1.17;0.67;;;20.80;62.30;;;;;;21066106;28;20488;-20
2021/08/10 11:04:02;;;;;;;1.25;0.80;;;20.90;62.30;;;;;;21089616;22;20415;-21
2021/08/10 11:14:03;;;;;;;;;;;20.80;62.30;;;;;;21066064;28;20107;-21
2021/08/10 11:24:33;;;;;;;2.25;1.13;;;20.90;62.40;;;;;;21078004;28;19912;-21
2021/08/10 11:34:37;;;;;;;1.20;0.80;;;20.90;62.40;;;;;;21080530;28;20039;-21
2021/08/10 11:44:38;;;;;;;1.40;0.88;;;20.90;62.40;;;;;;21079900;28;20051;-20
2021/08/10 11:54:38;;;;;;;2.33;1.30;;;20.90;62.40;;;;;;21079332;28;20567;-21
2021/08/10 12:04:39;;;;;;;1.70;0.75;;;20.90;62.40;;;;;;21079103;28;20047;-19
2021/08/10 12:14:41;;;;;;;1.83;1.20;;;20.90;62.40;;;;;;21076700;28;20035;-19
2021/08/10 12:24:42;;;;;;;2.08;1.02;;;20.90;62.80;;;;;;21075342;28;20210;-21
2021/08/10 12:34:42;;;;;;;1.65;1.00;;;20.90;62.20;;;;;;21074205;28;20122;-20
2021/08/10 12:44:43;;;;;;;1.55;0.90;;;20.90;62.40;;;;;;21075870;28;20031;-22
2021/08/10 12:54:47;;;;;;;2.10;1.33;;;20.90;62.40;;;;;;21075660;28;20122;-21
2021/08/10 13:04:57;;;;;;;2.78;1.23;;;20.90;62.30;;;;;;21072206;28;20514;-21
2021/08/10 13:15:06;;;;;;;1.73;1.00;;;20.90;62.30;;;;;;21072770;28;20036;-21
2021/08/10 13:25:11;;;;;;;1.98;0.98;;;20.90;62.20;;;;;;21073685;28;20043;-21
2021/08/10 13:35:12;;;;;;;2.35;1.08;;;21.00;62.70;;;;;;21071370;28;20032;-21
2021/08/10 13:45:13;;;;;;;1.80;0.93;;;21.00;62.20;;;;;;21070493;28;20054;-21
2021/08/10 13:55:14;;;;;;;2.63;1.45;;;21.00;62.20;;;;;;21070437;28;20044;-21
2021/08/10 14:05:14;;;;;;;2.25;1.30;;;21.00;62.30;;;;;;21070166;28;20751;-21
2021/08/10 14:15:15;;;;;;;1.80;1.05;;;21.00;62.30;;;;;;21069756;28;20032;-21
2021/08/10 14:25:15;;;;;;;2.28;1.20;;;21.00;62.20;;;;;;21068663;28;20461;-21
2021/08/10 14:35:16;;;;;;;1.85;0.88;;;21.00;62.40;;;;;;21067211;28;20043;-20
2021/08/10 14:45:17;;;;;;;1.88;0.77;;;21.00;62.30;;;;;;21067514;28;20089;-21
2021/08/10 14:55:17;;;;;;;2.47;1.30;;;21.00;62.30;;;;;;21074825;28;20059;-21
2021/08/10 15:05:18;;;;;;;2.63;1.60;;;20.90;62.30;;;;;;21081741;28;20040;-21
2021/08/10 15:15:18;;;;;;;2.33;1.30;;;21.00;62.30;;;;;;21081135;28;20028;-20
2021/08/10 15:25:19;;;;;;;2.58;1.35;;;21.00;62.30;;;;;;21080690;28;20031;-19
2021/08/10 15:35:20;;;;;;;1.43;0.93;;;21.00;62.30;;;;;;21079261;28;20036;-21
2021/08/10 15:45:20;;;;;;;2.10;1.23;;;21.00;62.30;;;;;;21076966;28;21044;-21
2021/08/10 15:55:21;;;;;;;2.30;1.20;;;20.90;62.20;;;;;;21077594;28;20044;-21
2021/08/10 16:05:21;;;;;;;2.10;1.08;;;20.90;62.20;;;;;;21076121;28;20046;-21
2021/08/10 16:15:22;;;;;;;1.90;0.93;;;20.90;62.20;;;;;;21076861;28;20032;-21
2021/08/10 16:25:23;;;;;;;1.95;1.00;;;21.00;62.30;;;;;;21077177;28;20036;-21
2021/08/10 16:35:23;;;;;;;2.55;1.38;;;20.90;62.40;;;;;;21075854;28;20043;-21
2021/08/10 16:45:24;;;;;;;1.92;1.33;;;20.90;62.30;;;;;;21075268;28;20467;-21
2021/08/10 16:55:24;;;;;;;2.50;1.50;;;20.90;62.40;;;;;;21076426;28;20115;-21
2021/08/10 17:05:25;;;;;;;2.17;1.23;;;20.90;62.50;;;;;;21076453;28;20032;-21
2021/08/10 17:15:28;;;;;;;2.08;1.38;;;20.90;62.40;;;;;;21074382;28;20442;-20
2021/08/10 17:25:28;;;;;;;2.65;1.13;;;20.90;62.40;;;;;;21077112;28;20272;-20
2021/08/10 17:35:29;;;;;;;3.65;1.40;;;20.90;62.40;;;;;;21070981;28;20464;-20
2021/08/10 17:45:31;;;;;;;2.90;1.38;;;20.90;62.40;;;;;;21069813;28;20032;-20
2021/08/10 17:55:32;;;;;;;2.70;1.50;;;20.90;62.40;;;;;;21069029;28;20115;-20
2021/08/10 18:05:32;;;;;;;2.83;1.45;;;20.90;62.30;;;;;;21073375;28;20071;-21
2021/08/10 18:15:33;;;;;;;2.38;1.48;;;20.90;62.30;;;;;;21069018;28;20404;-21
2021/08/10 18:25:33;;;;;;;1.88;1.08;;;20.90;62.30;;;;;;21069173;28;20054;-21
2021/08/10 18:35:34;;;;;;;2.50;1.42;;;20.90;62.40;;;;;;21087371;28;20032;-21
2021/08/10 18:45:35;;;;;;;2.55;1.45;;;20.90;62.30;;;;;;21085730;28;20093;-21
2021/08/10 18:55:35;;;;;;;2.25;1.42;;;20.90;62.40;;;;;;21084587;28;20067;-21
2021/08/10 19:05:36;;;;;;;2.10;1.37;;;20.90;62.40;;;;;;21083061;28;20075;-21
2021/08/10 19:15:36;;;;;;;2.78;2.17;;;20.90;62.40;;;;;;21089389;28;20079;-21
2021/08/10 19:25:38;;;;;;;1.90;1.20;;;20.90;62.40;;;;;;21085397;28;20072;-20
2021/08/10 19:35:39;;;;;;;3.17;1.80;;;20.90;62.40;;;;;;21082365;28;20036;-21
2021/08/10 19:45:43;;;;;;;2.22;1.48;;;20.90;62.40;;;;;;21083661;28;20036;-22
2021/08/10 19:55:44;;;;;;;3.08;1.73;;;20.80;62.40;;;;;;21087431;28;20500;-22
2021/08/10 20:05:45;;;;;;;1.88;1.30;;;20.90;62.50;;;;;;21076966;28;20127;-21
2021/08/10 20:15:46;;;;;;;2.38;1.58;;;20.80;62.40;;;;;;21075014;28;20028;-21
2021/08/10 20:25:46;;;;;;;2.15;1.23;;;20.80;62.50;;;;;;21075666;28;20075;-21
2021/08/10 20:35:47;;;;;;;2.38;1.55;;;20.80;62.50;;;;;;21075059;28;20032;-21
2021/08/10 20:45:47;;;;;;;2.22;1.33;;;20.70;62.50;;;;;;21074213;28;20233;-20
2021/08/10 20:55:48;;;;;;;3.10;1.77;;;20.80;62.50;;;;;;21073418;28;20040;-20
2021/08/10 21:05:49;;;;;;;1.50;1.05;;;20.80;62.60;;;;;;21074631;28;20044;-21
2021/08/10 21:15:49;;;;;;;2.50;1.63;;;20.80;62.60;;;;;;21073754;28;20036;-20
2021/08/10 21:25:50;;;;;;;2.15;1.30;;;20.80;62.60;;;;;;21071112;28;20487;-20
2021/08/10 21:35:51;;;;;;;2.03;1.20;;;20.80;62.60;;;;;;21070548;28;20074;-21
2021/08/10 21:45:51;;;;;;;2.33;1.60;;;20.80;62.60;;;;;;21069568;28;20024;-21
2021/08/10 21:55:52;;;;;;;1.73;1.17;;;20.80;62.60;;;;;;21068914;28;20060;-22
2021/08/10 22:05:53;;;;;;;2.50;1.50;;;20.80;62.60;;;;;;21067773;28;20385;-21
2021/08/10 22:15:54;;;;;;;3.05;1.52;;;20.80;62.60;;;;;;21068234;28;20036;-19
2021/08/10 22:25:54;;;;;;;1.90;1.20;;;20.80;62.60;;;;;;21078038;28;20047;-21
2021/08/10 22:35:55;;;;;;;2.30;1.20;;;20.70;62.60;;;;;;21087852;28;20484;-21
2021/08/10 22:45:56;;;;;;;1.67;1.33;;;20.70;62.60;;;;;;21069305;28;20047;-20
2021/08/10 22:55:56;;;;;;;2.78;1.80;;;20.70;62.70;;;;;;21067802;28;20043;-21
2021/08/10 23:05:57;;;;;;;2.90;1.33;;;20.70;62.70;;;;;;21067891;28;20051;-20
2021/08/10 23:16:04;;;;;;;2.80;1.65;;;20.70;62.70;;;;;;21071875;28;20035;-20
2021/08/10 23:26:05;;;;;;;2.22;1.48;;;20.70;62.70;;;;;;21080709;28;20057;-21
2021/08/10 23:36:06;;;;;;;2.88;1.75;;;20.70;62.70;;;;;;21080343;28;20496;-21
2021/08/10 23:46:07;;;;;;;1.88;1.50;;;20.70;62.70;;;;;;21079238;28;20040;-21
2021/08/10 23:56:08;;;;;;;2.85;1.88;;;20.70;62.70;;;;;;21078307;28;20047;-21
